createdAt,value
2023-09-15T00:01:28.843Z,15.44
2023-09-15T00:04:00.254Z,15.44
2023-09-15T00:06:29.881Z,15.49
2023-09-15T00:09:00.125Z,15.49
2023-09-15T00:11:41.685Z,15.53
2023-09-15T00:14:12.526Z,15.53
2023-09-15T00:16:43.284Z,15.52
2023-09-15T00:19:17.889Z,15.51
2023-09-15T00:21:49.820Z,15.56
2023-09-15T00:24:19.365Z,15.58
2023-09-15T00:26:49.749Z,15.54
2023-09-15T00:29:19.351Z,15.53
2023-09-15T00:31:48.893Z,15.60
2023-09-15T00:34:19.981Z,15.66
2023-09-15T00:36:50.527Z,15.66
2023-09-15T00:39:20.003Z,15.69
2023-09-15T00:41:49.551Z,15.71
2023-09-15T00:47:18.923Z,15.64
2023-09-15T00:49:48.927Z,15.61
2023-09-15T00:52:19.072Z,15.57
2023-09-15T00:54:48.635Z,15.48
2023-09-15T00:57:18.592Z,15.46
2023-09-15T00:59:48.061Z,15.41
2023-09-15T01:02:19.015Z,15.37
2023-09-15T01:04:48.778Z,15.38
2023-09-15T01:07:18.388Z,15.39
2023-09-15T01:09:48.126Z,15.37
2023-09-15T01:12:17.520Z,15.32
2023-09-15T01:14:47.238Z,15.20
2023-09-15T01:17:26.185Z,15.20
2023-09-15T01:20:09.424Z,15.28
2023-09-15T01:23:23.864Z,15.56
2023-09-15T01:26:19.914Z,16.42
2023-09-15T01:29:16.971Z,17.08
2023-09-15T01:31:50.388Z,17.41
2023-09-15T01:34:20.229Z,17.55
2023-09-15T01:36:49.716Z,17.67
2023-09-15T01:39:19.239Z,17.81
2023-09-15T01:41:48.813Z,17.32
2023-09-15T01:44:18.183Z,17.04
2023-09-15T01:46:49.385Z,16.84
2023-09-15T01:49:20.405Z,16.75
2023-09-15T01:51:50.575Z,16.62
2023-09-15T01:54:20.897Z,16.54
2023-09-15T01:56:50.654Z,16.58
2023-09-15T01:59:20.143Z,16.65
2023-09-15T02:01:50.962Z,17.09
2023-09-15T02:04:20.788Z,17.59
2023-09-15T02:06:50.557Z,17.97
2023-09-15T02:09:22.118Z,18.14
2023-09-15T02:11:51.534Z,17.76
2023-09-15T02:14:20.971Z,17.32
2023-09-15T02:16:53.156Z,17.13
2023-09-15T02:19:22.625Z,16.94
2023-09-15T02:21:52.137Z,16.65
2023-09-15T02:24:21.600Z,16.53
2023-09-15T02:26:51.049Z,16.52
2023-09-15T02:29:20.530Z,16.54
2023-09-15T02:31:52.590Z,16.55
2023-09-15T02:34:22.265Z,16.56
2023-09-15T02:36:51.783Z,16.61
2023-09-15T02:39:21.354Z,16.63
2023-09-15T02:41:50.803Z,16.62
2023-09-15T02:44:20.739Z,16.63
2023-09-15T02:46:51.734Z,16.63
2023-09-15T02:49:21.355Z,16.54
2023-09-15T02:51:50.845Z,16.52
2023-09-15T02:54:20.251Z,16.53
2023-09-15T02:56:49.644Z,16.52
2023-09-15T02:59:19.092Z,16.46
2023-09-15T03:01:48.850Z,16.45
2023-09-15T03:04:20.639Z,16.39
2023-09-15T03:06:51.189Z,16.37
2023-09-15T03:09:20.579Z,16.33
2023-09-15T03:11:50.030Z,16.28
2023-09-15T03:14:19.876Z,16.21
2023-09-15T03:16:49.584Z,15.97
2023-09-15T03:19:20.796Z,15.85
2023-09-15T03:21:50.390Z,15.71
2023-09-15T03:24:20.513Z,15.56
2023-09-15T03:26:50.093Z,15.40
2023-09-15T03:29:19.509Z,15.30
2023-09-15T03:31:49.127Z,15.24
2023-09-15T03:34:20.236Z,15.23
2023-09-15T03:36:49.764Z,15.06
2023-09-15T03:39:19.405Z,14.87
2023-09-15T03:41:49.647Z,14.91
2023-09-15T03:44:19.053Z,14.84
2023-09-15T03:48:17.800Z,14.74
2023-09-15T03:50:48.687Z,14.66
2023-09-15T03:53:18.486Z,14.57
2023-09-15T03:55:48.761Z,14.50
2023-09-15T03:58:18.966Z,14.52
2023-09-15T04:00:48.597Z,14.28
2023-09-15T04:03:22.371Z,14.34
2023-09-15T04:05:52.325Z,14.28
2023-09-15T04:08:21.757Z,14.32
2023-09-15T04:10:51.085Z,14.29
2023-09-15T04:13:20.531Z,14.25
2023-09-15T04:15:51.638Z,14.26
2023-09-15T04:18:22.492Z,14.18
2023-09-15T04:20:53.009Z,14.18
2023-09-15T04:23:22.474Z,14.18
2023-09-15T04:25:51.941Z,14.13
2023-09-15T04:28:21.495Z,14.11
2023-09-15T04:30:51.571Z,14.19
2023-09-15T04:33:22.419Z,14.20
2023-09-15T04:35:51.860Z,14.27
2023-09-15T04:38:21.823Z,14.27
2023-09-15T04:40:52.473Z,14.29
2023-09-15T04:43:22.906Z,14.37
2023-09-15T04:45:52.346Z,14.43
2023-09-15T04:48:23.130Z,14.54
2023-09-15T04:50:52.568Z,14.60
2023-09-15T04:53:22.106Z,14.64
2023-09-15T04:55:51.692Z,14.70
2023-09-15T04:58:21.094Z,14.83
2023-09-15T05:00:50.835Z,14.93
2023-09-15T05:03:21.803Z,15.18
2023-09-15T05:05:52.499Z,15.40
2023-09-15T05:08:21.984Z,15.60
2023-09-15T05:10:51.637Z,15.87
2023-09-15T05:13:21.108Z,16.08
2023-09-15T05:15:50.544Z,16.26
2023-09-15T05:18:21.378Z,16.50
2023-09-15T05:20:50.973Z,16.73
2023-09-15T05:23:20.464Z,16.97
2023-09-15T05:25:52.382Z,17.19
2023-09-15T05:28:21.838Z,17.36
2023-09-15T05:30:51.693Z,17.50
2023-09-15T05:33:22.671Z,17.68
2023-09-15T05:35:52.396Z,17.87
2023-09-15T05:38:21.840Z,18.07
2023-09-15T05:40:51.596Z,18.23
2023-09-15T05:43:22.222Z,18.42
2023-09-15T05:45:51.728Z,18.58
2023-09-15T05:48:24.633Z,18.77
2023-09-15T05:50:54.714Z,18.95
2023-09-15T05:53:24.264Z,19.13
2023-09-15T05:55:55.278Z,19.33
2023-09-15T05:58:24.882Z,19.54
2023-09-15T06:00:57.088Z,19.73
2023-09-15T06:03:27.892Z,19.91
2023-09-15T06:05:57.273Z,20.09
2023-09-15T06:08:27.824Z,20.29
2023-09-15T06:10:58.503Z,20.52
2023-09-15T06:13:28.106Z,20.70
2023-09-15T06:15:58.918Z,20.81
2023-09-15T06:18:29.831Z,20.96
2023-09-15T06:20:59.135Z,21.10
2023-09-15T06:23:29.976Z,21.25
2023-09-15T06:25:59.332Z,21.37
2023-09-15T06:28:28.761Z,21.49
2023-09-15T06:30:58.192Z,21.63
2023-09-15T06:33:29.155Z,21.72
2023-09-15T06:35:58.703Z,21.87
2023-09-15T06:38:28.416Z,21.94
2023-09-15T06:40:57.833Z,22.04
2023-09-15T06:43:27.408Z,22.13
2023-09-15T06:48:17.726Z,22.36
2023-09-15T06:50:47.703Z,22.40
2023-09-15T06:53:17.156Z,22.48
2023-09-15T06:55:46.588Z,22.52
2023-09-15T06:58:16.149Z,22.51
2023-09-15T07:00:46.443Z,22.56
2023-09-15T07:03:17.466Z,22.68
2023-09-15T07:05:47.291Z,22.86
2023-09-15T07:08:16.852Z,22.78
2023-09-15T07:10:46.384Z,22.89
2023-09-15T07:13:16.145Z,23.09
2023-09-15T07:15:48.649Z,23.17
2023-09-15T07:18:19.660Z,23.19
2023-09-15T07:20:49.297Z,23.34
2023-09-15T07:23:18.916Z,23.41
2023-09-15T07:25:49.041Z,23.38
2023-09-15T07:28:18.782Z,23.20
2023-09-15T07:30:48.487Z,23.39
2023-09-15T07:33:19.521Z,23.71
2023-09-15T07:35:49.033Z,23.97
2023-09-15T07:38:18.581Z,24.10
2023-09-15T07:40:48.129Z,24.23
2023-09-15T07:43:17.726Z,24.32
2023-09-15T07:45:47.391Z,24.47
2023-09-15T07:48:18.640Z,24.58
2023-09-15T07:50:48.143Z,24.77
2023-09-15T07:53:17.895Z,24.87
2023-09-15T07:55:47.513Z,24.86
2023-09-15T07:58:17.130Z,24.87
2023-09-15T08:00:47.720Z,24.91
2023-09-15T08:03:18.647Z,24.82
2023-09-15T08:05:48.134Z,24.96
2023-09-15T08:08:17.629Z,24.96
2023-09-15T08:10:47.868Z,25.09
2023-09-15T08:13:17.295Z,25.25
2023-09-15T08:15:47.044Z,25.19
2023-09-15T08:18:16.668Z,25.27
2023-09-15T08:20:47.623Z,25.20
2023-09-15T08:23:17.124Z,25.16
2023-09-15T08:25:47.477Z,25.20
2023-09-15T08:28:17.129Z,25.22
2023-09-15T08:30:48.055Z,25.19
2023-09-15T08:33:17.561Z,25.09
2023-09-15T08:35:48.357Z,25.06
2023-09-15T08:38:17.911Z,24.89
2023-09-15T08:40:56.182Z,25.19
2023-09-15T08:43:26.021Z,25.45
2023-09-15T08:45:56.669Z,25.36
2023-09-15T08:48:32.483Z,25.62
2023-09-15T08:51:05.879Z,25.74
2023-09-15T08:53:36.053Z,25.97
2023-09-15T08:56:05.581Z,26.15
2023-09-15T08:58:35.576Z,26.05
2023-09-15T09:01:08.989Z,26.15
2023-09-15T09:03:40.343Z,26.21
2023-09-15T09:06:13.893Z,26.36
2023-09-15T09:08:48.143Z,26.48
2023-09-15T09:11:18.585Z,26.18
2023-09-15T09:13:54.749Z,26.05
2023-09-15T09:16:25.122Z,25.80
2023-09-15T09:18:58.776Z,25.61
2023-09-15T09:21:31.662Z,25.59
2023-09-15T09:24:01.675Z,25.65
2023-09-15T09:26:31.412Z,25.77
2023-09-15T09:29:01.024Z,25.83
2023-09-15T09:31:32.237Z,25.93
2023-09-15T09:34:02.075Z,26.13
2023-09-15T09:36:33.344Z,26.29
2023-09-15T09:39:03.028Z,26.30
2023-09-15T09:41:32.801Z,26.36
2023-09-15T09:44:06.529Z,26.52
2023-09-15T09:48:21.970Z,26.65
2023-09-15T09:50:52.366Z,26.84
2023-09-15T09:53:30.794Z,26.84
2023-09-15T09:56:00.455Z,26.98
2023-09-15T09:58:30.235Z,26.94
2023-09-15T10:00:59.763Z,27.06
2023-09-15T10:03:30.663Z,27.14
2023-09-15T10:06:00.562Z,27.07
2023-09-15T10:08:31.406Z,27.16
2023-09-15T10:11:01.660Z,27.20
2023-09-15T10:13:32.868Z,27.25
2023-09-15T10:16:02.456Z,27.11
2023-09-15T10:18:33.876Z,27.15
2023-09-15T10:21:04.022Z,27.16
2023-09-15T10:23:34.095Z,26.93
2023-09-15T10:26:06.528Z,27.05
2023-09-15T10:28:56.235Z,27.24
2023-09-15T10:31:25.926Z,27.35
2023-09-15T10:33:56.849Z,27.20
2023-09-15T10:36:26.349Z,27.23
2023-09-15T10:38:56.005Z,27.27
2023-09-15T10:41:32.785Z,27.26
2023-09-15T10:44:02.426Z,27.33
2023-09-15T10:46:39.881Z,27.29
2023-09-15T10:49:23.799Z,27.23
2023-09-15T10:51:58.161Z,27.36
2023-09-15T10:54:29.333Z,27.32
2023-09-15T10:56:59.455Z,27.32
2023-09-15T10:59:29.550Z,27.33
2023-09-15T11:02:00.323Z,27.29
2023-09-15T11:04:32.515Z,27.30
2023-09-15T11:07:04.826Z,27.40
2023-09-15T11:09:34.439Z,27.42
2023-09-15T11:12:05.711Z,27.52
2023-09-15T11:14:35.283Z,27.59
2023-09-15T11:17:05.319Z,27.61
2023-09-15T11:19:38.658Z,27.61
2023-09-15T11:22:08.685Z,27.29
2023-09-15T11:24:38.288Z,27.04
2023-09-15T11:27:07.980Z,27.35
2023-09-15T11:29:37.554Z,27.72
2023-09-15T11:32:09.524Z,27.92
2023-09-15T11:34:40.479Z,27.99
2023-09-15T11:37:12.348Z,28.06
2023-09-15T11:39:41.972Z,27.86
2023-09-15T11:42:14.554Z,27.88
2023-09-15T11:44:44.914Z,27.98
2023-09-15T11:47:15.079Z,28.08
2023-09-15T11:49:47.107Z,28.13
2023-09-15T11:52:16.686Z,28.14
2023-09-15T11:54:47.521Z,28.14
2023-09-15T11:57:17.104Z,28.24
2023-09-15T11:59:46.944Z,28.36
2023-09-15T12:02:21.801Z,28.40
2023-09-15T12:04:52.789Z,28.35
2023-09-15T12:07:25.781Z,28.34
2023-09-15T12:09:56.354Z,28.30
2023-09-15T12:12:26.053Z,28.12
2023-09-15T12:15:02.753Z,28.16
2023-09-15T12:17:32.478Z,28.34
2023-09-15T12:20:06.111Z,28.44
2023-09-15T12:22:36.774Z,28.59
2023-09-15T12:25:07.306Z,28.71
2023-09-15T12:27:37.037Z,28.64
2023-09-15T12:30:08.169Z,28.72
2023-09-15T12:32:39.018Z,28.63
2023-09-15T12:35:14.654Z,28.00
2023-09-15T12:37:46.533Z,27.64
2023-09-15T12:40:17.133Z,27.44
2023-09-15T12:42:47.440Z,27.58
2023-09-15T12:48:17.583Z,27.73
2023-09-15T12:50:47.143Z,27.64
2023-09-15T12:53:16.751Z,27.50
2023-09-15T12:55:48.229Z,27.34
2023-09-15T12:58:19.857Z,27.12
2023-09-15T13:00:49.611Z,27.01
2023-09-15T13:03:23.089Z,26.96
2023-09-15T13:05:53.694Z,26.84
2023-09-15T13:08:23.385Z,26.65
2023-09-15T13:10:52.910Z,26.47
2023-09-15T13:13:22.795Z,26.46
2023-09-15T13:15:52.301Z,26.40
2023-09-15T13:18:25.446Z,26.24
2023-09-15T13:20:54.916Z,26.21
2023-09-15T13:23:24.326Z,26.25
2023-09-15T13:25:53.653Z,26.12
2023-09-15T13:28:23.081Z,26.10
2023-09-15T13:30:52.591Z,26.03
2023-09-15T13:33:23.622Z,25.98
2023-09-15T13:35:53.165Z,25.98
2023-09-15T13:38:23.053Z,25.97
2023-09-15T13:40:52.678Z,26.00
2023-09-15T13:43:22.779Z,26.04
2023-09-15T13:45:53.349Z,26.03
2023-09-15T13:48:24.534Z,26.01
2023-09-15T13:50:56.249Z,25.97
2023-09-15T13:53:25.707Z,25.93
2023-09-15T13:55:55.448Z,25.82
2023-09-15T13:58:25.018Z,25.77
2023-09-15T14:01:02.628Z,25.76
2023-09-15T14:03:33.608Z,25.68
2023-09-15T14:06:03.104Z,25.70
2023-09-15T14:08:32.444Z,25.74
2023-09-15T14:11:03.778Z,25.76
2023-09-15T14:13:33.233Z,25.75
2023-09-15T14:16:03.466Z,25.72
2023-09-15T14:18:34.688Z,25.70
2023-09-15T14:21:04.372Z,25.68
2023-09-15T14:23:33.858Z,25.59
2023-09-15T14:26:04.124Z,25.61
2023-09-15T14:28:33.506Z,25.56
2023-09-15T14:31:05.438Z,25.46
2023-09-15T14:33:36.493Z,25.37
2023-09-15T14:36:06.138Z,25.33
2023-09-15T14:38:35.861Z,25.33
2023-09-15T14:41:05.387Z,25.36
2023-09-15T14:43:34.770Z,25.33
2023-09-15T14:46:04.199Z,25.25
2023-09-15T14:48:35.185Z,25.20
2023-09-15T14:51:04.565Z,25.13
2023-09-15T14:53:38.096Z,25.03
2023-09-15T14:56:07.440Z,24.99
2023-09-15T14:58:36.866Z,24.93
2023-09-15T15:01:06.279Z,24.90
2023-09-15T15:03:37.251Z,24.87
2023-09-15T15:06:07.177Z,24.84
2023-09-15T15:08:36.595Z,24.77
2023-09-15T15:11:07.981Z,24.73
2023-09-15T15:13:37.589Z,24.65
2023-09-15T15:16:09.374Z,24.56
2023-09-15T15:18:40.467Z,24.53
2023-09-15T15:21:10.130Z,24.52
2023-09-15T15:23:39.575Z,24.46
2023-09-15T15:26:10.315Z,24.41
2023-09-15T15:28:39.701Z,24.39
2023-09-15T15:31:14.141Z,24.35
2023-09-15T15:33:45.624Z,24.30
2023-09-15T15:36:15.188Z,24.20
2023-09-15T15:38:45.161Z,24.11
2023-09-15T15:41:14.977Z,24.07
2023-09-15T15:43:45.515Z,24.03
2023-09-15T15:48:17.518Z,23.94
2023-09-15T15:50:48.264Z,23.80
2023-09-15T15:53:17.756Z,23.59
2023-09-15T15:55:47.648Z,23.37
2023-09-15T15:58:17.255Z,23.17
2023-09-15T16:03:18.347Z,22.92
2023-09-15T16:05:48.109Z,22.86
2023-09-15T16:08:17.701Z,22.84
2023-09-15T16:10:47.184Z,22.92
2023-09-15T16:13:16.748Z,22.90
2023-09-15T16:15:48.474Z,22.84
2023-09-15T16:18:30.289Z,22.81
2023-09-15T16:21:00.814Z,22.72
2023-09-15T16:23:30.595Z,22.58
2023-09-15T16:26:00.970Z,22.52
2023-09-15T16:28:30.655Z,22.46
2023-09-15T16:31:00.309Z,22.34
2023-09-15T16:33:31.373Z,22.30
2023-09-15T16:36:05.093Z,22.37
2023-09-15T16:38:34.847Z,22.32
2023-09-15T16:41:04.762Z,22.28
2023-09-15T16:43:36.761Z,22.32
2023-09-15T16:46:06.151Z,22.20
2023-09-15T16:48:37.094Z,22.17
2023-09-15T16:51:09.088Z,22.12
2023-09-15T16:53:38.117Z,21.93
2023-09-15T16:56:07.410Z,21.70
2023-09-15T16:58:36.826Z,21.70
2023-09-15T17:01:06.463Z,21.69
2023-09-15T17:03:37.896Z,21.51
2023-09-15T17:06:08.166Z,21.36
2023-09-15T17:08:37.461Z,21.31
2023-09-15T17:11:08.396Z,21.21
2023-09-15T17:13:37.673Z,21.09
2023-09-15T17:16:07.050Z,21.07
2023-09-15T17:18:37.867Z,20.84
2023-09-15T17:21:07.455Z,20.71
2023-09-15T17:23:36.764Z,20.62
2023-09-15T17:26:06.075Z,20.56
2023-09-15T17:28:35.487Z,20.54
2023-09-15T17:31:04.952Z,20.47
2023-09-15T17:33:34.551Z,20.42
2023-09-15T17:36:05.817Z,20.42
2023-09-15T17:38:35.330Z,20.43
2023-09-15T17:41:08.230Z,20.37
2023-09-15T17:43:37.753Z,20.33
2023-09-15T17:46:07.345Z,20.25
2023-09-15T17:48:37.081Z,20.18
2023-09-15T17:51:09.623Z,20.12
2023-09-15T17:53:39.167Z,20.10
2023-09-15T17:56:08.561Z,20.05
2023-09-15T17:58:38.043Z,19.97
2023-09-15T18:01:07.650Z,20.01
2023-09-15T18:03:38.316Z,19.93
2023-09-15T18:06:13.605Z,19.86
2023-09-15T18:08:43.052Z,19.75
2023-09-15T18:11:12.986Z,19.74
2023-09-15T18:13:42.574Z,19.74
2023-09-15T18:16:12.112Z,19.70
2023-09-15T18:18:41.703Z,19.64
2023-09-15T18:21:12.566Z,19.63
2023-09-15T18:23:42.091Z,19.65
2023-09-15T18:26:11.576Z,19.66
2023-09-15T18:28:41.794Z,19.59
2023-09-15T18:31:11.305Z,19.51
2023-09-15T18:33:42.599Z,19.49
2023-09-15T18:36:18.582Z,19.48
2023-09-15T18:38:48.382Z,19.48
2023-09-15T18:41:17.940Z,19.49
2023-09-15T18:43:48.280Z,19.47
2023-09-15T18:48:20.228Z,19.50
2023-09-15T18:50:49.686Z,19.50
2023-09-15T18:53:19.994Z,19.55
2023-09-15T18:55:49.429Z,19.58
2023-09-15T18:58:19.019Z,19.61
2023-09-15T19:00:48.574Z,19.63
2023-09-15T19:03:19.871Z,19.63
2023-09-15T19:05:49.266Z,19.61
2023-09-15T19:08:19.909Z,19.57
2023-09-15T19:10:49.510Z,19.54
2023-09-15T19:13:32.537Z,19.54
2023-09-15T19:18:43.215Z,19.48
2023-09-15T19:21:12.732Z,19.46
2023-09-15T19:23:42.253Z,19.47
2023-09-15T19:26:11.786Z,19.54
2023-09-15T19:28:41.424Z,19.52
2023-09-15T19:31:11.047Z,19.48
2023-09-15T19:33:42.032Z,19.43
2023-09-15T19:36:12.184Z,19.43
2023-09-15T19:38:42.338Z,19.38
2023-09-15T19:41:11.878Z,19.37
2023-09-15T19:43:41.337Z,19.34
2023-09-15T19:46:14.031Z,19.39
2023-09-15T19:48:45.092Z,19.37
2023-09-15T19:51:14.688Z,19.36
2023-09-15T19:53:44.926Z,19.33
2023-09-15T19:56:14.422Z,19.29
2023-09-15T19:58:43.883Z,19.25
2023-09-15T20:01:13.311Z,19.17
2023-09-15T20:03:44.311Z,19.19
2023-09-15T20:06:14.104Z,19.21
2023-09-15T20:08:43.739Z,19.22
2023-09-15T20:11:13.174Z,19.22
2023-09-15T20:13:42.681Z,19.22
2023-09-15T20:16:19.565Z,19.21
2023-09-15T20:18:50.897Z,19.16
2023-09-15T20:21:20.496Z,19.15
2023-09-15T20:23:51.162Z,19.15
2023-09-15T20:26:20.659Z,19.17
2023-09-15T20:28:50.289Z,19.14
2023-09-15T20:31:20.344Z,19.05
2023-09-15T20:33:51.369Z,18.98
2023-09-15T20:36:21.716Z,18.98
2023-09-15T20:38:51.081Z,18.97
2023-09-15T20:41:22.537Z,18.95
2023-09-15T20:43:57.416Z,18.95
2023-09-15T20:46:29.745Z,18.99
2023-09-15T20:49:00.783Z,18.93
2023-09-15T20:51:30.618Z,18.85
2023-09-15T20:54:00.069Z,18.82
2023-09-15T20:56:29.434Z,18.76
2023-09-15T20:58:59.324Z,18.68
2023-09-15T21:01:28.884Z,18.56
2023-09-15T21:04:00.832Z,18.56
2023-09-15T21:06:30.414Z,18.53
2023-09-15T21:09:01.151Z,18.49
2023-09-15T21:11:30.624Z,18.35
2023-09-15T21:14:00.243Z,18.16
2023-09-15T21:16:29.838Z,18.12
2023-09-15T21:19:02.136Z,18.07
2023-09-15T21:21:31.568Z,18.01
2023-09-15T21:24:01.098Z,17.97
2023-09-15T21:26:30.703Z,17.98
2023-09-15T21:29:00.427Z,17.95
2023-09-15T21:31:32.744Z,17.89
2023-09-15T21:34:04.509Z,17.78
2023-09-15T21:36:34.016Z,17.72
2023-09-15T21:39:03.622Z,17.67
2023-09-15T21:41:33.481Z,17.62
2023-09-15T21:44:03.007Z,17.61
2023-09-15T21:48:16.995Z,17.58
2023-09-15T21:50:46.458Z,17.49
2023-09-15T21:53:16.494Z,17.39
2023-09-15T21:55:45.921Z,17.29
2023-09-15T21:58:15.524Z,17.21
2023-09-15T22:03:18.919Z,17.10
2023-09-15T22:05:48.461Z,17.09
2023-09-15T22:08:18.124Z,17.04
2023-09-15T22:10:48.744Z,16.98
2023-09-15T22:13:20.163Z,16.94
2023-09-15T22:15:49.849Z,16.84
2023-09-15T22:18:20.827Z,16.71
2023-09-15T22:20:50.773Z,16.48
2023-09-15T22:23:20.224Z,16.37
2023-09-15T22:25:50.597Z,16.08
2023-09-15T22:28:20.036Z,16.01
2023-09-15T22:30:49.615Z,16.14
2023-09-15T22:33:20.562Z,16.21
2023-09-15T22:35:49.957Z,16.23
2023-09-15T22:38:19.334Z,16.22
2023-09-15T22:40:48.940Z,16.17
2023-09-15T22:43:18.559Z,16.09
2023-09-15T22:45:48.913Z,15.94
2023-09-15T22:48:20.031Z,15.95
2023-09-15T22:50:49.491Z,15.91
2023-09-15T22:53:19.881Z,15.88
2023-09-15T22:55:49.887Z,15.90
2023-09-15T22:58:19.290Z,15.59
2023-09-15T23:00:48.842Z,15.30
2023-09-15T23:03:19.815Z,15.30
2023-09-15T23:05:49.340Z,15.43
2023-09-15T23:08:18.941Z,15.40
2023-09-15T23:10:48.408Z,15.39
2023-09-15T23:13:17.951Z,15.46
2023-09-15T23:15:47.647Z,15.23
2023-09-15T23:18:17.225Z,15.15
2023-09-15T23:20:48.052Z,15.17
2023-09-15T23:23:17.710Z,14.90
2023-09-15T23:25:48.531Z,14.88
2023-09-15T23:28:17.974Z,14.93
2023-09-15T23:30:48.509Z,14.82
2023-09-15T23:33:18.136Z,14.78
2023-09-15T23:35:49.193Z,14.72
2023-09-15T23:38:18.882Z,14.76
2023-09-15T23:40:48.268Z,14.86
2023-09-15T23:43:17.781Z,14.97
2023-09-15T23:45:47.309Z,15.04
2023-09-15T23:48:16.860Z,15.01
2023-09-15T23:50:47.716Z,14.88
2023-09-15T23:53:17.404Z,14.78
2023-09-15T23:55:46.971Z,14.74
2023-09-15T23:58:16.556Z,14.71
